Portada
METAR-TAF:

METAR-TAF

Aeropuertos :

Aeródromo de Teruel

Teruel, España

latitud: 40-24-43N, longitud: 01-13-03W, altitud: 1030 m

Observación

El informe se hizo hace 35 minutos, a las 02:30 UTC
Viento 3 kt del noroeste, variando entre oeste-noroeste y norte
Temperatura 0°C
Humedad 100%
Presión 1032 hPa
Visibilidad: 7000 m

METAR: LETL 100230Z AUTO 31003KT 290V350 7000 NSC 00/M00 Q1032

Hora: 04:05 (03:05 UTC)


TAF: falta

Observaciones y pronósticos meteorológicos de más de 4000 aeropuertos (mensajes METAR y TAF).

Los puntos amarillos y rojos representan las estaciones disponibles.

Ponga el ratón en el punto deseado para ver el nombre de la estación.

Haga clic para ver las observaciones y los pronósticos meteorológicos.

Para cambiar el mapa : haga clic en los botones verdes con una cruz de color negro para hacer un zoom, en el botón verde con un guión para alejar o en las flechas verdes para mapas adyacentes.


METAR-TAF: